createdAt,value
2017-08-22T00:00:45.536Z,82.70
2017-08-22T00:03:13.132Z,82.00
2017-08-22T00:05:41.060Z,83.00
2017-08-22T00:08:08.621Z,83.20
2017-08-22T00:10:36.194Z,83.10
2017-08-22T00:13:03.778Z,83.10
2017-08-22T00:15:31.346Z,82.70
2017-08-22T00:17:58.935Z,82.60
2017-08-22T00:20:26.498Z,83.10
2017-08-22T00:22:54.366Z,83.70
2017-08-22T00:25:21.926Z,84.10
2017-08-22T00:27:49.499Z,83.70
2017-08-22T00:30:17.111Z,84.10
2017-08-22T00:32:44.667Z,84.20
2017-08-22T00:35:12.267Z,84.40
2017-08-22T00:37:39.822Z,84.70
2017-08-22T00:40:07.469Z,84.40
2017-08-22T00:42:35.065Z,84.20
2017-08-22T00:45:02.642Z,84.20
2017-08-22T00:47:30.233Z,84.70
2017-08-22T00:49:57.790Z,84.80
2017-08-22T00:52:25.367Z,84.80
2017-08-22T00:54:52.957Z,85.00
2017-08-22T00:57:20.999Z,84.40
2017-08-22T00:59:48.575Z,84.50
2017-08-22T01:02:16.150Z,84.00
2017-08-22T01:04:43.734Z,84.10
2017-08-22T01:07:11.306Z,83.90
2017-08-22T01:09:38.893Z,84.10
2017-08-22T01:12:06.480Z,84.20
2017-08-22T01:14:34.484Z,84.60
2017-08-22T01:17:02.051Z,84.00
2017-08-22T01:19:29.626Z,84.30
2017-08-22T01:21:57.238Z,83.90
2017-08-22T01:24:24.811Z,84.20
2017-08-22T01:26:52.414Z,84.70
2017-08-22T01:29:20.024Z,85.10
2017-08-22T01:31:47.858Z,85.10
2017-08-22T01:34:15.437Z,84.40
2017-08-22T01:36:43.014Z,84.40
2017-08-22T01:39:10.629Z,84.20
2017-08-22T01:41:38.217Z,84.60
2017-08-22T01:44:05.826Z,83.80
2017-08-22T01:46:33.396Z,85.10
2017-08-22T01:49:01.286Z,84.20
2017-08-22T01:51:28.861Z,83.70
2017-08-22T01:53:56.542Z,83.70
2017-08-22T01:56:24.121Z,83.70
2017-08-22T01:58:51.679Z,83.40
2017-08-22T02:01:19.270Z,83.30
2017-08-22T02:03:46.836Z,83.70
2017-08-22T02:06:14.622Z,84.20
2017-08-22T02:08:42.194Z,84.50
2017-08-22T02:11:09.746Z,84.40
2017-08-22T02:13:37.342Z,84.80
2017-08-22T02:16:04.939Z,84.80
2017-08-22T02:18:32.526Z,85.20
2017-08-22T02:21:00.082Z,84.90
2017-08-22T02:23:27.818Z,84.90
2017-08-22T02:25:55.377Z,84.50
2017-08-22T02:28:22.933Z,85.00
2017-08-22T02:30:50.522Z,84.40
2017-08-22T02:33:18.083Z,84.50
2017-08-22T02:35:45.679Z,84.90
2017-08-22T02:38:13.249Z,85.30
2017-08-22T02:40:40.845Z,84.50
2017-08-22T02:43:08.406Z,83.40
2017-08-22T02:45:36.007Z,83.70
2017-08-22T02:48:04.230Z,84.30
2017-08-22T02:50:31.798Z,84.40
2017-08-22T02:52:59.382Z,84.60
2017-08-22T02:55:26.951Z,84.50
2017-08-22T02:57:54.579Z,84.70
2017-08-22T03:00:22.185Z,84.00
2017-08-22T03:02:49.747Z,84.20
2017-08-22T03:05:17.340Z,84.30
2017-08-22T03:07:44.934Z,84.00
2017-08-22T03:10:12.516Z,83.50
2017-08-22T03:12:40.082Z,83.90
2017-08-22T03:15:08.076Z,84.20
2017-08-22T03:17:35.639Z,84.70
2017-08-22T03:20:03.205Z,85.00
2017-08-22T03:22:30.790Z,84.80
2017-08-22T03:24:58.354Z,84.40
2017-08-22T03:27:25.938Z,84.10
2017-08-22T03:29:53.514Z,84.20
2017-08-22T03:32:21.411Z,84.60
2017-08-22T03:34:48.969Z,84.70
2017-08-22T03:37:16.522Z,84.40
2017-08-22T03:39:44.110Z,84.20
2017-08-22T03:42:11.702Z,84.20
2017-08-22T03:44:39.298Z,84.00
2017-08-22T03:47:06.866Z,84.00
2017-08-22T03:49:34.621Z,84.00
2017-08-22T03:52:02.214Z,84.30
2017-08-22T03:54:29.781Z,84.30
2017-08-22T03:56:57.365Z,84.30
2017-08-22T03:59:24.928Z,84.60
2017-08-22T04:01:52.514Z,84.80
2017-08-22T04:04:20.071Z,84.20
2017-08-22T04:06:47.986Z,84.60
2017-08-22T04:09:15.541Z,86.20
2017-08-22T04:11:43.102Z,86.20
2017-08-22T04:14:11.272Z,86.80
2017-08-22T04:16:38.854Z,87.30
2017-08-22T04:19:06.428Z,86.50
2017-08-22T04:21:33.986Z,85.60
2017-08-22T04:24:01.730Z,86.50
2017-08-22T04:26:29.293Z,87.30
2017-08-22T04:28:56.846Z,86.90
2017-08-22T04:31:24.426Z,86.90
2017-08-22T04:33:52.007Z,87.00
2017-08-22T04:36:19.590Z,87.10
2017-08-22T04:38:47.145Z,87.30
2017-08-22T04:41:14.970Z,87.00
2017-08-22T04:43:42.534Z,86.60
2017-08-22T04:46:10.087Z,86.60
2017-08-22T04:48:37.669Z,86.80
2017-08-22T04:51:05.230Z,85.60
2017-08-22T04:53:32.817Z,85.60
2017-08-22T04:56:00.517Z,85.50
2017-08-22T04:58:28.269Z,85.20
2017-08-22T05:00:55.828Z,85.40
2017-08-22T05:03:23.603Z,85.90
2017-08-22T05:05:52.098Z,85.70
2017-08-22T05:08:19.671Z,85.90
2017-08-22T05:10:47.265Z,85.60
2017-08-22T05:13:14.875Z,85.10
2017-08-22T05:15:42.478Z,84.50
2017-08-22T05:18:10.060Z,84.70
2017-08-22T05:20:37.710Z,84.40
2017-08-22T05:23:05.271Z,85.30
2017-08-22T05:25:32.863Z,84.90
2017-08-22T05:28:00.453Z,84.50
2017-08-22T05:30:28.026Z,84.50
2017-08-22T05:32:55.627Z,84.40
2017-08-22T05:35:23.245Z,84.50
2017-08-22T05:37:50.849Z,85.10
2017-08-22T05:40:18.442Z,85.40
2017-08-22T05:42:46.003Z,84.40
2017-08-22T05:45:13.614Z,84.10
2017-08-22T05:47:41.198Z,84.00
2017-08-22T05:50:08.763Z,84.90
2017-08-22T05:52:36.498Z,84.70
2017-08-22T05:55:04.067Z,84.50
2017-08-22T05:57:32.080Z,84.10
2017-08-22T05:59:59.646Z,83.80
2017-08-22T06:02:27.288Z,83.10
2017-08-22T06:04:54.868Z,83.30
2017-08-22T06:07:22.446Z,83.50
2017-08-22T06:09:50.032Z,83.30
2017-08-22T06:12:17.602Z,83.00
2017-08-22T06:14:45.186Z,82.90
2017-08-22T06:17:12.744Z,82.90
2017-08-22T06:19:40.327Z,82.80
2017-08-22T06:22:07.926Z,83.40
2017-08-22T06:24:36.313Z,82.40
2017-08-22T06:27:03.893Z,82.40
2017-08-22T06:29:31.457Z,82.30
2017-08-22T06:31:59.033Z,82.10
2017-08-22T06:34:26.594Z,81.10
2017-08-22T06:36:54.350Z,79.20
2017-08-22T06:39:21.931Z,75.60
2017-08-22T06:41:49.493Z,71.20
2017-08-22T06:44:17.101Z,67.00
2017-08-22T06:46:44.679Z,64.30
2017-08-22T06:49:12.265Z,63.60
2017-08-22T06:51:39.830Z,61.40
2017-08-22T06:54:07.419Z,60.70
2017-08-22T06:56:35.017Z,56.60
2017-08-22T06:59:02.586Z,55.10
2017-08-22T07:01:30.177Z,54.60
2017-08-22T07:03:57.745Z,54.10
2017-08-22T07:06:25.335Z,52.90
2017-08-22T07:08:52.899Z,51.50
2017-08-22T07:11:20.480Z,51.60
2017-08-22T07:13:48.090Z,49.70
2017-08-22T07:16:15.650Z,49.60
2017-08-22T07:18:43.235Z,48.50
2017-08-22T07:21:10.944Z,47.90
2017-08-22T07:23:38.654Z,47.30
2017-08-22T07:26:06.214Z,45.60
2017-08-22T07:28:33.775Z,44.10
2017-08-22T07:31:01.571Z,43.40
2017-08-22T07:33:29.446Z,43.00
2017-08-22T07:35:57.030Z,42.20
2017-08-22T07:38:24.619Z,42.40
2017-08-22T07:40:52.206Z,41.80
2017-08-22T07:43:19.793Z,42.70
2017-08-22T07:45:47.350Z,42.80
2017-08-22T07:48:14.933Z,41.00
2017-08-22T07:50:42.506Z,40.70
2017-08-22T07:53:10.093Z,39.00
2017-08-22T07:55:37.666Z,39.30
2017-08-22T07:58:05.586Z,39.50
2017-08-22T08:00:33.168Z,37.60
2017-08-22T08:03:00.725Z,38.50
2017-08-22T08:05:28.309Z,38.60
2017-08-22T08:07:55.876Z,39.00
2017-08-22T08:10:23.463Z,37.40
2017-08-22T08:12:51.039Z,35.00
2017-08-22T08:15:18.594Z,35.10
2017-08-22T08:17:46.193Z,35.20
2017-08-22T08:20:13.758Z,35.60
2017-08-22T08:22:41.346Z,35.50
2017-08-22T08:25:08.913Z,34.90
2017-08-22T08:27:36.591Z,34.20
2017-08-22T08:30:04.201Z,34.40
2017-08-22T08:32:31.773Z,34.30
2017-08-22T08:34:59.365Z,35.20
2017-08-22T08:37:26.918Z,35.50
2017-08-22T08:39:54.474Z,35.20
2017-08-22T08:42:22.058Z,35.20
2017-08-22T08:44:49.636Z,35.40
2017-08-22T08:47:17.219Z,35.40
2017-08-22T08:49:44.778Z,35.00
2017-08-22T08:52:12.333Z,36.20
2017-08-22T08:54:39.934Z,35.00
2017-08-22T08:57:07.499Z,35.00
2017-08-22T08:59:36.425Z,34.60
2017-08-22T09:02:04.163Z,34.30
2017-08-22T09:04:31.754Z,34.40
2017-08-22T09:06:59.338Z,34.50
2017-08-22T09:09:26.930Z,35.00
2017-08-22T09:11:54.533Z,34.30
2017-08-22T09:14:22.143Z,34.70
2017-08-22T09:16:49.748Z,33.80
2017-08-22T09:19:17.339Z,33.80
2017-08-22T09:21:44.922Z,31.20
2017-08-22T09:24:12.512Z,30.30
2017-08-22T09:26:40.388Z,32.60
2017-08-22T09:29:08.115Z,32.20
2017-08-22T09:31:35.705Z,31.20
2017-08-22T09:34:03.318Z,30.70
2017-08-22T09:36:30.903Z,32.50
2017-08-22T09:38:58.485Z,31.00
2017-08-22T09:41:26.086Z,29.60
2017-08-22T09:43:53.651Z,30.00
2017-08-22T09:46:21.239Z,30.30
2017-08-22T09:48:48.822Z,29.70
2017-08-22T09:51:16.406Z,30.30
2017-08-22T09:53:47.081Z,32.60
2017-08-22T09:56:15.298Z,30.90
2017-08-22T09:58:42.876Z,30.70
2017-08-22T10:01:10.680Z,30.80
2017-08-22T10:03:38.664Z,29.80
2017-08-22T10:06:06.221Z,30.00
2017-08-22T10:08:33.806Z,28.60
2017-08-22T10:11:01.372Z,28.50
2017-08-22T10:13:28.976Z,29.40
2017-08-22T10:15:56.534Z,29.90
2017-08-22T10:18:24.312Z,27.70
2017-08-22T10:20:51.883Z,29.30
2017-08-22T10:23:19.442Z,29.70
2017-08-22T10:25:47.042Z,28.50
2017-08-22T10:28:14.598Z,28.80
2017-08-22T10:30:42.317Z,28.80
2017-08-22T10:33:09.873Z,29.00
2017-08-22T10:35:37.430Z,29.00
2017-08-22T10:38:05.018Z,29.60
2017-08-22T10:40:32.572Z,30.80
2017-08-22T10:43:00.214Z,29.10
2017-08-22T10:45:27.774Z,28.20
2017-08-22T10:47:55.333Z,28.40
2017-08-22T10:50:22.912Z,29.10
2017-08-22T10:52:50.470Z,29.80
2017-08-22T10:55:18.177Z,28.80
2017-08-22T10:57:45.743Z,29.40
2017-08-22T11:00:13.319Z,28.90
2017-08-22T11:02:40.947Z,29.50
2017-08-22T11:05:08.544Z,28.60
2017-08-22T11:07:36.137Z,28.20
2017-08-22T11:10:03.695Z,28.60
2017-08-22T11:12:31.259Z,28.80
2017-08-22T11:14:58.839Z,28.50
2017-08-22T11:17:26.403Z,27.90
2017-08-22T11:19:54.137Z,28.10
2017-08-22T11:22:21.702Z,28.30
2017-08-22T11:24:49.278Z,29.80
2017-08-22T11:27:17.507Z,29.30
2017-08-22T11:29:45.088Z,29.40
2017-08-22T11:32:12.860Z,29.90
2017-08-22T11:34:40.461Z,30.30
2017-08-22T11:37:08.022Z,30.30
2017-08-22T11:39:35.619Z,29.70
2017-08-22T11:42:03.181Z,29.50
2017-08-22T11:44:30.826Z,29.50
2017-08-22T11:46:58.386Z,30.00
2017-08-22T11:49:25.942Z,29.90
2017-08-22T11:51:53.521Z,28.80
2017-08-22T11:54:21.082Z,29.20
2017-08-22T11:56:48.818Z,29.90
2017-08-22T11:59:16.379Z,29.60
2017-08-22T12:01:43.931Z,30.90
2017-08-22T12:04:11.511Z,31.30
2017-08-22T12:06:39.067Z,30.50
2017-08-22T12:09:06.922Z,29.80
2017-08-22T12:11:34.571Z,31.10
2017-08-22T12:14:02.130Z,30.40
2017-08-22T12:16:29.710Z,31.60
2017-08-22T12:18:57.318Z,30.60
2017-08-22T12:21:25.240Z,29.90
2017-08-22T12:23:52.823Z,31.00
2017-08-22T12:26:20.390Z,32.30
2017-08-22T12:28:47.971Z,30.80
2017-08-22T12:31:15.530Z,30.60
2017-08-22T12:33:43.543Z,30.00
2017-08-22T12:36:11.115Z,30.60
2017-08-22T12:38:39.438Z,31.20
2017-08-22T12:41:07.018Z,31.10
2017-08-22T12:43:34.583Z,31.50
2017-08-22T12:46:02.570Z,30.60
2017-08-22T12:48:30.141Z,30.00
2017-08-22T12:50:57.698Z,30.10
2017-08-22T12:53:25.292Z,30.00
2017-08-22T12:55:53.635Z,29.30
2017-08-22T12:58:22.210Z,29.50
2017-08-22T13:00:49.766Z,29.50
2017-08-22T13:03:17.330Z,30.80
2017-08-22T13:05:44.917Z,30.90
2017-08-22T13:08:12.477Z,30.30
2017-08-22T13:10:40.124Z,30.30
2017-08-22T13:13:07.694Z,30.50
2017-08-22T13:15:35.534Z,30.40
2017-08-22T13:18:03.138Z,31.20
2017-08-22T13:20:30.698Z,30.90
2017-08-22T13:22:58.510Z,30.80
2017-08-22T13:25:26.070Z,30.70
2017-08-22T13:27:53.630Z,31.70
2017-08-22T13:30:21.226Z,31.70
2017-08-22T13:32:48.778Z,31.40
2017-08-22T13:35:16.606Z,30.50
2017-08-22T13:37:44.249Z,31.50
2017-08-22T13:40:11.851Z,28.50
2017-08-22T13:42:39.450Z,30.70
2017-08-22T13:45:07.011Z,30.70
2017-08-22T13:47:34.830Z,31.20
2017-08-22T13:50:02.396Z,32.10
2017-08-22T13:52:30.510Z,32.80
2017-08-22T13:54:58.319Z,33.70
2017-08-22T13:57:25.901Z,33.40
2017-08-22T13:59:53.497Z,34.10
2017-08-22T14:02:21.055Z,33.00
2017-08-22T14:04:48.616Z,32.30
2017-08-22T14:07:16.203Z,33.90
2017-08-22T14:09:43.763Z,34.10
2017-08-22T14:12:11.461Z,34.30
2017-08-22T14:14:39.029Z,34.50
2017-08-22T14:17:06.691Z,35.50
2017-08-22T14:19:34.250Z,35.10
2017-08-22T14:22:02.360Z,35.00
2017-08-22T14:24:30.868Z,34.50
2017-08-22T14:26:58.630Z,34.60
2017-08-22T14:29:26.243Z,36.50
2017-08-22T14:31:53.814Z,35.40
2017-08-22T14:34:21.662Z,34.90
2017-08-22T14:36:49.229Z,37.00
2017-08-22T14:39:16.826Z,37.80
2017-08-22T14:41:44.410Z,37.80
2017-08-22T14:44:11.996Z,38.70
2017-08-22T14:46:40.279Z,37.90
2017-08-22T14:49:07.834Z,37.70
2017-08-22T14:51:35.443Z,37.50
2017-08-22T14:54:03.040Z,37.20
2017-08-22T14:56:30.598Z,36.60
2017-08-22T14:58:58.179Z,37.80
2017-08-22T15:01:25.757Z,37.30
2017-08-22T15:03:53.335Z,36.60
2017-08-22T15:06:20.909Z,35.80
2017-08-22T15:08:49.809Z,37.70
2017-08-22T15:11:17.381Z,38.40
2017-08-22T15:13:44.954Z,40.80
2017-08-22T15:16:12.538Z,39.10
2017-08-22T15:18:40.098Z,39.80
2017-08-22T15:21:07.684Z,40.00
2017-08-22T15:23:35.249Z,39.70
2017-08-22T15:26:03.113Z,40.80
2017-08-22T15:28:30.682Z,41.30
2017-08-22T15:30:58.243Z,41.40
2017-08-22T15:33:25.834Z,41.60
2017-08-22T15:35:53.391Z,42.30
2017-08-22T15:38:22.097Z,40.60
2017-08-22T15:40:49.680Z,40.90
2017-08-22T15:43:17.461Z,40.70
2017-08-22T15:45:45.050Z,40.70
2017-08-22T15:48:12.619Z,40.90
2017-08-22T15:50:40.235Z,41.90
2017-08-22T15:53:07.815Z,41.20
2017-08-22T15:55:36.375Z,41.50
2017-08-22T15:58:03.938Z,41.00
2017-08-22T16:00:31.719Z,41.80
2017-08-22T16:02:59.285Z,42.40
2017-08-22T16:05:26.861Z,42.90
2017-08-22T16:07:54.447Z,41.70
2017-08-22T16:10:22.022Z,42.30
2017-08-22T16:12:49.630Z,42.80
2017-08-22T16:15:17.209Z,43.30
2017-08-22T16:17:45.235Z,44.80
2017-08-22T16:20:12.806Z,46.40
2017-08-22T16:22:40.353Z,44.10
2017-08-22T16:25:07.949Z,45.00
2017-08-22T16:27:35.527Z,44.90
2017-08-22T16:30:03.134Z,44.70
2017-08-22T16:32:30.720Z,45.60
2017-08-22T16:34:58.455Z,47.70
2017-08-22T16:37:26.038Z,46.10
2017-08-22T16:39:53.605Z,46.40
2017-08-22T16:42:21.207Z,46.80
2017-08-22T16:44:48.778Z,47.10
2017-08-22T16:47:16.361Z,47.40
2017-08-22T16:49:43.912Z,47.10
2017-08-22T16:52:11.779Z,48.00
2017-08-22T16:54:39.383Z,48.60
2017-08-22T16:57:08.205Z,48.90
2017-08-22T16:59:35.790Z,48.60
2017-08-22T17:02:03.390Z,48.70
2017-08-22T17:04:30.988Z,48.30
2017-08-22T17:06:58.545Z,48.50
2017-08-22T17:09:26.167Z,49.20
2017-08-22T17:11:53.726Z,49.20
2017-08-22T17:14:21.311Z,49.70
2017-08-22T17:16:48.907Z,50.20
2017-08-22T17:19:16.478Z,50.00
2017-08-22T17:21:44.068Z,51.60
2017-08-22T17:24:11.642Z,52.00
2017-08-22T17:26:39.280Z,52.40
2017-08-22T17:29:06.846Z,52.00
2017-08-22T17:31:34.403Z,51.50
2017-08-22T17:34:02.002Z,50.50
2017-08-22T17:36:29.570Z,51.10
2017-08-22T17:38:57.179Z,51.60
2017-08-22T17:41:24.742Z,50.80
2017-08-22T17:43:52.376Z,50.30
2017-08-22T17:46:20.031Z,49.70
2017-08-22T17:48:47.709Z,51.10
2017-08-22T17:51:15.299Z,50.70
2017-08-22T17:53:42.866Z,51.20
2017-08-22T17:56:11.472Z,51.00
2017-08-22T17:58:39.059Z,51.10
2017-08-22T18:01:06.721Z,50.90
2017-08-22T18:03:34.290Z,51.70
2017-08-22T18:06:02.650Z,51.40
2017-08-22T18:08:30.629Z,51.50
2017-08-22T18:10:58.271Z,51.40
2017-08-22T18:13:26.219Z,51.90
2017-08-22T18:15:53.870Z,51.90
2017-08-22T18:18:22.009Z,52.50
2017-08-22T18:20:49.648Z,52.50
2017-08-22T18:23:17.298Z,52.80
2017-08-22T18:25:44.885Z,53.90
2017-08-22T18:28:12.492Z,54.90
2017-08-22T18:30:40.146Z,55.00
2017-08-22T18:33:07.709Z,55.70
2017-08-22T18:35:35.551Z,55.10
2017-08-22T18:38:03.109Z,55.60
2017-08-22T18:40:30.750Z,56.00
2017-08-22T18:42:58.333Z,56.50
2017-08-22T18:45:25.903Z,56.60
2017-08-22T18:47:53.498Z,56.70
2017-08-22T18:50:21.062Z,57.80
2017-08-22T18:52:49.713Z,58.90
2017-08-22T18:55:17.507Z,59.50
2017-08-22T18:57:45.101Z,59.30
2017-08-22T19:00:12.763Z,59.20
2017-08-22T19:02:40.462Z,59.10
2017-08-22T19:05:08.440Z,59.40
2017-08-22T19:07:36.026Z,59.90
2017-08-22T19:10:03.701Z,60.60
2017-08-22T19:12:31.294Z,60.70
2017-08-22T19:15:00.865Z,59.20
2017-08-22T19:17:28.580Z,61.10
2017-08-22T19:19:56.166Z,61.70
2017-08-22T19:22:24.209Z,61.70
2017-08-22T19:24:51.775Z,62.00
2017-08-22T19:27:19.539Z,62.30
2017-08-22T19:29:47.250Z,62.30
2017-08-22T19:32:15.770Z,62.40
2017-08-22T19:34:43.378Z,63.10
2017-08-22T19:37:11.009Z,63.30
2017-08-22T19:39:38.822Z,63.90
2017-08-22T19:42:06.869Z,64.20
2017-08-22T19:44:34.479Z,64.70
2017-08-22T19:47:02.267Z,65.60
2017-08-22T19:49:29.843Z,66.60
2017-08-22T19:51:57.470Z,66.50
2017-08-22T19:54:25.037Z,66.20
2017-08-22T19:56:52.641Z,66.70
2017-08-22T19:59:20.265Z,66.80
2017-08-22T20:01:47.955Z,67.20
2017-08-22T20:04:15.574Z,67.50
2017-08-22T20:06:43.305Z,68.50
2017-08-22T20:09:11.122Z,69.70
2017-08-22T20:11:38.982Z,70.10
2017-08-22T20:14:06.575Z,70.30
2017-08-22T20:16:34.390Z,70.50
2017-08-22T20:19:03.833Z,71.20
2017-08-22T20:21:31.629Z,71.00
2017-08-22T20:23:59.965Z,70.60
2017-08-22T20:26:28.010Z,70.60
2017-08-22T20:28:55.630Z,71.10
2017-08-22T20:31:23.214Z,69.70
2017-08-22T20:33:50.911Z,70.60
2017-08-22T20:36:18.502Z,69.80
2017-08-22T20:38:46.216Z,70.00
2017-08-22T20:41:13.809Z,70.40
2017-08-22T20:43:41.620Z,71.10
2017-08-22T20:46:09.382Z,71.40
2017-08-22T20:48:36.942Z,72.00
2017-08-22T20:51:04.596Z,72.30
2017-08-22T20:53:32.163Z,72.60
2017-08-22T20:55:59.742Z,72.20
2017-08-22T20:58:27.304Z,72.10
2017-08-22T21:00:55.348Z,73.10
2017-08-22T21:03:22.958Z,73.50
2017-08-22T21:05:50.617Z,73.50
2017-08-22T21:08:18.339Z,73.70
2017-08-22T21:10:46.862Z,74.30
2017-08-22T21:13:14.509Z,74.40
2017-08-22T21:15:42.087Z,75.00
2017-08-22T21:18:09.858Z,75.30
2017-08-22T21:20:37.414Z,75.30
2017-08-22T21:23:05.599Z,76.60
2017-08-22T21:25:33.191Z,77.10
2017-08-22T21:28:00.754Z,77.40
2017-08-22T21:30:28.336Z,77.30
2017-08-22T21:32:55.900Z,77.00
2017-08-22T21:35:23.526Z,77.10
2017-08-22T21:37:51.088Z,76.90
2017-08-22T21:40:18.657Z,76.90
2017-08-22T21:42:46.252Z,76.60
2017-08-22T21:45:13.813Z,76.60
2017-08-22T21:47:41.398Z,77.40
2017-08-22T21:50:08.972Z,78.30
2017-08-22T21:52:36.711Z,78.50
2017-08-22T21:55:04.279Z,78.90
2017-08-22T21:57:32.062Z,79.60
2017-08-22T21:59:59.647Z,79.00
2017-08-22T22:02:27.209Z,78.60
2017-08-22T22:04:54.797Z,78.00
2017-08-22T22:07:22.362Z,77.40
2017-08-22T22:09:50.338Z,77.30
2017-08-22T22:12:17.926Z,77.60
2017-08-22T22:14:45.486Z,78.00
2017-08-22T22:17:13.069Z,77.30
2017-08-22T22:19:40.634Z,77.60
2017-08-22T22:22:08.218Z,78.60
2017-08-22T22:24:35.778Z,79.10
2017-08-22T22:27:03.365Z,79.10
2017-08-22T22:29:30.927Z,79.40
2017-08-22T22:31:58.487Z,79.30
2017-08-22T22:34:26.097Z,79.70
2017-08-22T22:36:53.658Z,79.00
2017-08-22T22:39:21.247Z,79.70
2017-08-22T22:41:48.802Z,80.00
2017-08-22T22:44:16.578Z,79.70
2017-08-22T22:46:44.145Z,80.10
2017-08-22T22:49:12.488Z,80.20
2017-08-22T22:51:40.071Z,80.90
2017-08-22T22:54:07.632Z,81.00
2017-08-22T22:56:35.218Z,80.80
2017-08-22T22:59:02.784Z,80.70
2017-08-22T23:01:30.512Z,80.80
2017-08-22T23:03:58.076Z,80.60
2017-08-22T23:06:25.634Z,80.30
2017-08-22T23:08:53.223Z,80.60
2017-08-22T23:11:20.794Z,80.80
2017-08-22T23:13:48.374Z,81.00
2017-08-22T23:16:15.937Z,80.70
2017-08-22T23:18:43.541Z,80.70
2017-08-22T23:21:11.106Z,80.90
2017-08-22T23:23:38.687Z,81.40
2017-08-22T23:26:06.322Z,81.80
2017-08-22T23:28:33.884Z,81.60
2017-08-22T23:31:01.480Z,81.70
2017-08-22T23:33:29.043Z,81.40
2017-08-22T23:35:56.853Z,80.50
2017-08-22T23:38:24.420Z,80.50
2017-08-22T23:40:52.038Z,80.30
2017-08-22T23:43:19.626Z,80.80
2017-08-22T23:45:47.192Z,81.40
2017-08-22T23:48:14.774Z,81.70
2017-08-22T23:50:42.339Z,82.10
2017-08-22T23:53:10.289Z,82.10
2017-08-22T23:55:37.845Z,82.40
2017-08-22T23:58:05.406Z,82.80
